Time;durP1;ratioP1;P1;durP2;ratioP2;P2;SDS_P1;SDS_P2;PMS_P1;PMS_P2;Temp;Humidity;BMP_temperature;BMP_pressure;BME280_temperature;BME280_humidity;BME280_pressure;Samples;Min_cycle;Max_cycle;Signal;HPM_P1;HPM_P2
2023/08/09 00:00:33;;;;;;;20.67;11.23;;;13.60;99.90;;;;;;5069273;28;20044;-52
2023/08/09 00:03:02;;;;;;;11.80;10.23;;;13.60;99.90;;;;;;5069198;28;20119;-52
2023/08/09 00:05:28;;;;;;;13.00;10.60;;;13.60;99.90;;;;;;5069475;28;20085;-52
2023/08/09 00:07:53;;;;;;;11.60;10.40;;;13.60;99.90;;;;;;5068752;28;20036;-51
2023/08/09 00:10:19;;;;;;;12.38;9.98;;;13.60;99.90;;;;;;5069086;28;20493;-51
2023/08/09 00:12:45;;;;;;;12.68;10.27;;;13.70;99.90;;;;;;5068801;28;20141;-55
2023/08/09 00:15:11;;;;;;;17.30;11.70;;;13.70;99.90;;;;;;5068375;28;20119;-52
2023/08/09 00:17:37;;;;;;;17.23;10.60;;;13.70;99.90;;;;;;5068995;28;20485;-51
2023/08/09 00:20:04;;;;;;;14.18;11.82;;;13.70;99.90;;;;;;5069274;28;20493;-51
2023/08/09 00:22:30;;;;;;;15.77;12.10;;;13.70;99.90;;;;;;5069132;28;20033;-52
2023/08/09 00:24:56;;;;;;;;;;;13.70;99.90;;;;;;5069491;28;20443;-53
2023/08/09 00:27:22;;;;;;;17.33;12.10;;;13.70;99.90;;;;;;5068959;28;19927;-52
2023/08/09 00:29:48;;;;;;;14.68;11.68;;;13.70;99.90;;;;;;5068370;28;20032;-52
2023/08/09 00:32:14;;;;;;;16.55;11.63;;;13.80;99.90;;;;;;5068857;28;20040;-51
2023/08/09 00:34:39;;;;;;;18.15;12.57;;;13.70;99.90;;;;;;5069196;28;20051;-55
2023/08/09 00:37:05;;;;;;;15.88;12.65;;;13.80;99.90;;;;;;5068780;28;20036;-52
2023/08/09 00:39:31;;;;;;;15.18;12.45;;;13.80;99.90;;;;;;5068698;28;20118;-51
2023/08/09 00:41:56;;;;;;;16.52;12.82;;;13.80;99.90;;;;;;5068962;28;20036;-52
2023/08/09 00:44:22;;;;;;;17.23;12.63;;;13.70;99.90;;;;;;5068590;28;20043;-55
2023/08/09 00:46:48;;;;;;;18.13;13.00;;;13.70;99.90;;;;;;5068990;28;20121;-51
2023/08/09 00:49:14;;;;;;;16.20;12.05;;;13.70;99.90;;;;;;5067494;28;20106;-51
2023/08/09 00:51:39;;;;;;;16.25;12.25;;;13.70;99.90;;;;;;5068829;28;20580;-52
2023/08/09 00:54:05;;;;;;;18.10;11.98;;;13.70;99.90;;;;;;5068902;28;20040;-51
2023/08/09 00:56:31;;;;;;;18.80;13.13;;;13.70;99.90;;;;;;5069098;28;20028;-52
2023/08/09 00:58:56;;;;;;;18.65;13.23;;;13.70;99.90;;;;;;5067908;28;20039;-54
2023/08/09 01:01:22;;;;;;;15.40;12.50;;;13.70;99.90;;;;;;5066038;28;20047;-52
2023/08/09 01:03:48;;;;;;;20.52;12.93;;;13.70;99.90;;;;;;5065851;28;20046;-53
2023/08/09 01:06:22;;;;;;;;;;;13.70;99.90;;;;;;5068895;28;20163;-52
2023/08/09 01:09:08;;;;;;;18.88;13.57;;;13.70;99.90;;;;;;5068112;28;19924;-53
2023/08/09 01:11:43;;;;;;;21.23;13.43;;;13.70;99.90;;;;;;5068048;28;20072;-53
2023/08/09 01:14:11;;;;;;;23.02;15.07;;;13.70;99.90;;;;;;5068833;28;20032;-52
2023/08/09 01:16:37;;;;;;;17.52;13.15;;;13.60;99.90;;;;;;5068487;28;20037;-52
2023/08/09 01:19:10;;;;;;;19.23;13.68;;;13.60;99.90;;;;;;5068475;28;20028;-52
2023/08/09 01:21:38;;;;;;;21.15;13.95;;;13.60;99.90;;;;;;5068481;28;20111;-52
2023/08/09 01:24:05;;;;;;;20.05;13.35;;;13.60;99.90;;;;;;5070225;28;20330;-53
2023/08/09 01:26:30;;;;;;;22.58;15.02;;;13.60;99.90;;;;;;5072312;28;20036;-54
2023/08/09 01:28:56;;;;;;;22.27;14.32;;;13.60;99.90;;;;;;5072064;28;20039;-53
2023/08/09 01:31:22;;;;;;;20.70;14.55;;;13.60;99.90;;;;;;5072456;28;20044;-53
2023/08/09 01:33:47;;;;;;;18.35;13.57;;;13.60;99.90;;;;;;5072277;28;20043;-52
2023/08/09 01:36:23;;;;;;;19.60;15.73;;;13.50;99.90;;;;;;5071851;28;20460;-52
2023/08/09 01:38:56;;;;;;;21.37;15.27;;;13.50;99.90;;;;;;5071748;28;20055;-52
2023/08/09 01:41:22;;;;;;;20.40;15.43;;;13.60;99.90;;;;;;5071077;28;20032;-52
2023/08/09 01:43:49;;;;;;;23.35;16.95;;;13.50;99.90;;;;;;5072225;28;20055;-51
2023/08/09 01:46:15;;;;;;;23.55;15.90;;;13.50;99.90;;;;;;5071733;28;20569;-53
2023/08/09 01:48:40;;;;;;;22.25;16.13;;;13.50;99.90;;;;;;5072119;28;20115;-52
2023/08/09 01:51:07;;;;;;;20.15;16.08;;;13.50;99.90;;;;;;5071640;28;20069;-52
2023/08/09 01:53:33;;;;;;;22.98;16.10;;;13.50;99.90;;;;;;5071972;28;20032;-54
2023/08/09 01:55:59;;;;;;;20.92;16.33;;;13.50;99.90;;;;;;5071714;28;20540;-53
2023/08/09 01:58:24;;;;;;;22.15;14.77;;;13.60;99.90;;;;;;5071419;28;20114;-56
2023/08/09 02:00:50;;;;;;;21.67;17.83;;;13.60;99.90;;;;;;5071556;28;20028;-52
2023/08/09 02:03:15;;;;;;;22.02;16.95;;;13.50;99.90;;;;;;5071967;28;20033;-53
2023/08/09 02:05:41;;;;;;;25.88;18.60;;;13.60;99.90;;;;;;5070897;28;20486;-52
2023/08/09 02:08:07;;;;;;;20.10;17.55;;;13.60;99.90;;;;;;5071518;28;20040;-53
2023/08/09 02:10:32;;;;;;;22.75;17.25;;;13.60;99.90;;;;;;5069587;28;20055;-53
2023/08/09 02:12:58;;;;;;;24.23;17.05;;;13.60;99.90;;;;;;5070247;28;20041;-53
2023/08/09 02:15:24;;;;;;;28.77;16.95;;;13.60;99.90;;;;;;5068527;28;20040;-51
2023/08/09 02:17:50;;;;;;;24.10;18.08;;;13.60;99.90;;;;;;5069971;28;20633;-53
2023/08/09 02:20:16;;;;;;;19.33;17.27;;;13.60;99.90;;;;;;5070335;28;20075;-51
2023/08/09 02:22:43;;;;;;;24.08;17.40;;;13.60;99.90;;;;;;5071382;28;20081;-52
2023/08/09 02:25:09;;;;;;;22.60;18.65;;;13.60;99.90;;;;;;5071414;28;20477;-53
2023/08/09 02:27:35;;;;;;;22.50;17.63;;;13.60;99.90;;;;;;5070890;28;20037;-52
2023/08/09 02:30:05;;;;;;;23.75;18.17;;;13.60;99.90;;;;;;5071075;28;20039;-54
2023/08/09 02:32:31;;;;;;;23.60;17.92;;;13.60;99.90;;;;;;5070877;28;20029;-51
2023/08/09 02:34:57;;;;;;;26.27;17.58;;;13.60;99.90;;;;;;5070094;28;20124;-53
2023/08/09 02:37:24;;;;;;;24.10;17.77;;;13.50;99.90;;;;;;5070890;28;20024;-56
2023/08/09 02:39:49;;;;;;;;;;;13.50;99.90;;;;;;5071505;28;20043;-53
2023/08/09 02:42:16;;;;;;;21.08;16.55;;;13.50;99.90;;;;;;5070833;28;20010;-51
2023/08/09 02:44:42;;;;;;;24.52;16.77;;;13.50;99.90;;;;;;5071023;28;20497;-56
2023/08/09 02:47:08;;;;;;;;;;;13.40;99.90;;;;;;5071427;28;20049;-53
2023/08/09 02:49:34;;;;;;;24.42;17.77;;;13.40;99.90;;;;;;5070198;28;19920;-52
2023/08/09 02:51:59;;;;;;;25.38;15.98;;;13.40;99.90;;;;;;5069574;28;20056;-53
2023/08/09 02:54:25;;;;;;;22.25;16.45;;;13.40;99.90;;;;;;5068240;28;20033;-52
2023/08/09 02:56:51;;;;;;;24.15;17.67;;;13.40;99.90;;;;;;5070427;28;20028;-51
2023/08/09 02:59:17;;;;;;;24.42;18.42;;;13.40;99.90;;;;;;5070804;28;20046;-53
2023/08/09 03:01:44;;;;;;;24.88;17.73;;;13.40;99.90;;;;;;5070444;28;20120;-52
2023/08/09 03:04:10;;;;;;;25.27;18.65;;;13.40;99.90;;;;;;5069912;28;20122;-52
2023/08/09 03:06:36;;;;;;;22.38;16.17;;;13.40;99.90;;;;;;5070182;28;20071;-54
2023/08/09 03:09:02;;;;;;;22.80;16.75;;;13.40;99.90;;;;;;5070245;28;20060;-52
2023/08/09 03:11:28;;;;;;;;;;;13.40;99.90;;;;;;5070620;28;20036;-51
2023/08/09 03:13:54;;;;;;;23.05;17.67;;;13.40;99.90;;;;;;5070059;28;20788;-53
2023/08/09 03:16:21;;;;;;;20.08;17.30;;;13.40;99.90;;;;;;5069831;28;20037;-55
2023/08/09 03:18:47;;;;;;;24.10;18.73;;;13.40;99.90;;;;;;5067366;28;20036;-52
2023/08/09 03:21:13;;;;;;;21.08;18.15;;;13.40;99.90;;;;;;5069438;28;20102;-53
2023/08/09 03:23:39;;;;;;;24.30;18.23;;;13.40;99.90;;;;;;5070263;28;20028;-54
2023/08/09 03:26:04;;;;;;;21.83;18.65;;;13.40;99.90;;;;;;5069934;28;20032;-53
2023/08/09 03:28:31;;;;;;;21.17;17.60;;;13.40;99.90;;;;;;5069376;28;20090;-52
2023/08/09 03:30:56;;;;;;;23.95;17.63;;;13.40;99.90;;;;;;5069637;28;20047;-54
2023/08/09 03:33:22;;;;;;;20.70;15.75;;;13.40;99.90;;;;;;5069715;28;20493;-55
2023/08/09 03:35:48;;;;;;;24.98;19.08;;;13.40;99.90;;;;;;5069922;28;20028;-52
2023/08/09 03:38:13;;;;;;;25.80;18.35;;;13.30;99.90;;;;;;5069367;28;20039;-52
2023/08/09 03:40:39;;;;;;;23.35;18.25;;;13.30;99.90;;;;;;5069669;28;20052;-52
2023/08/09 03:43:05;;;;;;;20.17;16.60;;;13.30;99.90;;;;;;5069684;28;20060;-52
2023/08/09 03:45:31;;;;;;;23.45;16.13;;;13.20;99.90;;;;;;5069308;28;20118;-52
2023/08/09 03:47:57;;;;;;;18.23;14.52;;;13.20;99.90;;;;;;5068795;28;20055;-54
2023/08/09 03:50:23;;;;;;;24.40;16.58;;;13.20;99.90;;;;;;5069698;28;20044;-52
2023/08/09 03:52:49;;;;;;;19.90;15.68;;;13.20;99.90;;;;;;5069501;28;20051;-53
2023/08/09 03:55:15;;;;;;;20.83;15.98;;;13.20;99.90;;;;;;5069572;28;20166;-52
2023/08/09 03:57:40;;;;;;;22.48;15.02;;;13.10;99.90;;;;;;5068838;28;20052;-51
2023/08/09 04:00:09;;;;;;;17.80;14.75;;;13.10;99.90;;;;;;5069229;28;20037;-52
2023/08/09 04:02:34;;;;;;;23.33;14.77;;;13.10;99.90;;;;;;5068847;28;20501;-51
2023/08/09 04:05:00;;;;;;;18.75;15.00;;;13.00;99.90;;;;;;5069752;28;20040;-52
2023/08/09 04:07:26;;;;;;;16.70;14.38;;;13.00;99.90;;;;;;5069123;28;20497;-52
2023/08/09 04:09:51;;;;;;;25.27;15.18;;;13.00;99.90;;;;;;5069168;28;20032;-53
2023/08/09 04:12:17;;;;;;;22.75;16.30;;;13.10;99.90;;;;;;5069086;28;20036;-51
2023/08/09 04:14:43;;;;;;;24.52;16.52;;;13.00;99.90;;;;;;5068553;28;20121;-55
2023/08/09 04:17:09;;;;;;;16.95;14.90;;;13.00;99.90;;;;;;5068722;28;20516;-52
2023/08/09 04:19:34;;;;;;;17.98;15.23;;;13.00;99.90;;;;;;5069086;28;20405;-52
2023/08/09 04:22:00;;;;;;;22.17;16.98;;;13.00;99.90;;;;;;5069153;28;20044;-51
2023/08/09 04:24:26;;;;;;;24.92;16.15;;;13.00;99.90;;;;;;5069136;28;20525;-52
2023/08/09 04:26:52;;;;;;;20.52;15.98;;;13.00;99.90;;;;;;5067709;28;20035;-52
2023/08/09 04:29:18;;;;;;;16.33;14.60;;;13.00;99.90;;;;;;5068214;28;20068;-55
2023/08/09 04:31:44;;;;;;;21.75;16.17;;;12.90;99.90;;;;;;5068696;28;20068;-51
2023/08/09 04:34:10;;;;;;;18.65;14.07;;;13.00;99.90;;;;;;5068734;28;20041;-52
2023/08/09 04:36:36;;;;;;;24.88;16.30;;;12.90;99.90;;;;;;5068577;28;20043;-52
2023/08/09 04:39:06;;;;;;;15.00;13.50;;;13.00;99.90;;;;;;5068601;28;20040;-52
2023/08/09 04:41:31;;;;;;;17.88;14.85;;;13.00;99.90;;;;;;5068341;28;20087;-53
2023/08/09 04:43:57;;;;;;;17.75;14.68;;;13.00;99.90;;;;;;5068728;28;20044;-52
2023/08/09 04:46:23;;;;;;;18.83;15.88;;;13.00;99.90;;;;;;5068961;28;20224;-52
2023/08/09 04:48:48;;;;;;;19.15;15.45;;;13.10;99.90;;;;;;5069067;28;20486;-52
2023/08/09 04:51:14;;;;;;;22.00;16.75;;;13.10;99.90;;;;;;5068902;28;20114;-52
2023/08/09 04:53:40;;;;;;;22.30;16.35;;;13.10;99.90;;;;;;5069045;28;20111;-54
2023/08/09 04:56:05;;;;;;;21.95;15.88;;;13.10;99.90;;;;;;5068461;28;20502;-54
2023/08/09 04:58:31;;;;;;;21.70;15.52;;;13.10;99.90;;;;;;5070874;28;20032;-52
2023/08/09 05:00:57;;;;;;;20.08;16.83;;;13.10;99.90;;;;;;5072982;28;20043;-52
2023/08/09 05:03:23;;;;;;;25.40;17.30;;;13.10;99.90;;;;;;5072896;28;20112;-52
2023/08/09 05:05:48;;;;;;;24.98;17.42;;;13.10;99.90;;;;;;5072977;28;20477;-51
2023/08/09 05:08:14;;;;;;;20.23;17.38;;;13.10;99.90;;;;;;5072280;28;20098;-55
2023/08/09 05:10:40;;;;;;;29.13;19.13;;;13.00;99.90;;;;;;5072859;28;20055;-53
2023/08/09 05:13:05;;;;;;;22.67;16.40;;;13.00;99.90;;;;;;5072162;28;20041;-51
2023/08/09 05:15:31;;;;;;;19.92;16.73;;;13.10;99.90;;;;;;5072265;28;20044;-53
2023/08/09 05:17:57;;;;;;;18.70;16.10;;;13.10;99.90;;;;;;5072230;28;20086;-55
2023/08/09 05:20:22;;;;;;;21.30;16.73;;;13.10;99.90;;;;;;5072659;28;20532;-52
2023/08/09 05:22:48;;;;;;;20.75;14.95;;;13.10;99.90;;;;;;5072238;28;20071;-54
2023/08/09 05:25:14;;;;;;;16.85;15.00;;;13.10;99.90;;;;;;5072309;28;20446;-53
2023/08/09 05:27:40;;;;;;;24.13;16.30;;;13.10;99.90;;;;;;5072016;28;20032;-54
2023/08/09 05:30:06;;;;;;;22.35;16.42;;;13.10;99.90;;;;;;5071907;28;20144;-52
2023/08/09 05:32:31;;;;;;;17.15;14.25;;;13.10;99.90;;;;;;5072274;28;20036;-54
2023/08/09 05:34:57;;;;;;;17.20;14.85;;;13.10;99.90;;;;;;5072255;28;20150;-52
2023/08/09 05:37:22;;;;;;;18.33;14.77;;;13.10;99.90;;;;;;5071898;28;20024;-52
2023/08/09 05:39:48;;;;;;;19.65;15.82;;;13.10;99.90;;;;;;5072161;28;20036;-54
2023/08/09 05:42:14;;;;;;;18.15;15.98;;;13.10;99.90;;;;;;5071709;28;20033;-52
2023/08/09 05:44:39;;;;;;;16.33;14.30;;;13.20;99.90;;;;;;5072083;28;20446;-53
2023/08/09 05:47:05;;;;;;;20.85;16.83;;;13.20;99.90;;;;;;5071813;28;20036;-51
2023/08/09 05:49:30;;;;;;;19.60;16.63;;;13.20;99.90;;;;;;5071368;28;20067;-54
2023/08/09 05:51:56;;;;;;;22.50;16.00;;;13.20;99.90;;;;;;5069773;28;20036;-52
2023/08/09 05:54:21;;;;;;;20.00;15.68;;;13.20;99.90;;;;;;5072008;28;20044;-52
2023/08/09 05:56:47;;;;;;;18.05;16.10;;;13.20;99.90;;;;;;5071404;28;20028;-54
2023/08/09 05:59:13;;;;;;;16.60;14.88;;;13.20;99.90;;;;;;5071000;28;20036;-55
2023/08/09 06:01:39;;;;;;;15.50;13.50;;;13.30;99.90;;;;;;5071237;28;20086;-53
2023/08/09 06:04:05;;;;;;;15.00;13.32;;;13.30;99.90;;;;;;5067589;28;20036;-52
2023/08/09 06:06:31;;;;;;;14.57;13.05;;;13.30;99.90;;;;;;5070955;28;20067;-52
2023/08/09 06:08:57;;;;;;;14.20;12.52;;;13.40;99.90;;;;;;5067696;28;20054;-52
2023/08/09 06:11:23;;;;;;;20.75;14.85;;;13.40;99.90;;;;;;5064748;28;20404;-54
2023/08/09 06:13:48;;;;;;;15.95;13.40;;;13.40;99.90;;;;;;5066141;28;20859;-51
2023/08/09 06:16:14;;;;;;;13.30;11.90;;;13.40;99.90;;;;;;5069897;28;20094;-52
2023/08/09 06:18:40;;;;;;;16.23;12.10;;;13.40;99.90;;;;;;5065558;28;20024;-52
2023/08/09 06:21:05;;;;;;;13.48;12.15;;;13.50;99.90;;;;;;5067201;28;20036;-54
2023/08/09 06:23:31;;;;;;;12.98;11.65;;;13.50;99.90;;;;;;5067643;28;20036;-54
2023/08/09 06:25:57;;;;;;;15.65;11.65;;;13.60;99.90;;;;;;5062447;28;20044;-56
2023/08/09 06:28:22;;;;;;;14.77;11.90;;;13.70;99.90;;;;;;5060813;28;20033;-53
2023/08/09 06:30:48;;;;;;;17.48;12.73;;;13.80;99.90;;;;;;5069758;28;20032;-52
2023/08/09 06:33:14;;;;;;;12.85;11.52;;;13.90;99.90;;;;;;5066395;28;20046;-55
2023/08/09 06:35:39;;;;;;;13.10;10.70;;;14.00;99.90;;;;;;5065117;28;20072;-53
2023/08/09 06:38:05;;;;;;;14.65;11.50;;;14.20;99.90;;;;;;5057955;28;20111;-54
2023/08/09 06:40:30;;;;;;;10.85;9.77;;;14.30;99.90;;;;;;5063291;28;20040;-53
2023/08/09 06:42:56;;;;;;;14.35;11.43;;;14.30;99.90;;;;;;5068901;28;20556;-52
2023/08/09 06:45:22;;;;;;;11.68;10.48;;;14.40;99.90;;;;;;5063446;28;20044;-56
2023/08/09 06:47:47;;;;;;;17.15;10.52;;;14.50;99.90;;;;;;5065186;28;21102;-55
2023/08/09 06:50:14;;;;;;;16.60;9.93;;;14.50;99.90;;;;;;5063588;28;20463;-55
2023/08/09 06:52:39;;;;;;;;;;;14.60;99.90;;;;;;5067324;28;20508;-56
2023/08/09 06:55:07;;;;;;;11.52;10.38;;;14.70;99.90;;;;;;5065006;28;20444;-54
2023/08/09 06:57:34;;;;;;;11.45;10.27;;;14.70;99.90;;;;;;5067244;28;20147;-56
2023/08/09 07:00:00;;;;;;;9.93;8.98;;;14.70;99.90;;;;;;5068046;28;20416;-55
2023/08/09 07:02:26;;;;;;;9.25;7.95;;;14.80;99.90;;;;;;5066811;28;20082;-55
2023/08/09 07:04:59;;;;;;;7.97;7.28;;;14.80;99.90;;;;;;5063878;28;20473;-54
2023/08/09 07:07:25;;;;;;;8.15;7.40;;;14.90;99.90;;;;;;5067857;28;20041;-55
2023/08/09 07:09:52;;;;;;;6.72;6.15;;;14.90;99.90;;;;;;5066877;28;20048;-55
2023/08/09 07:12:19;;;;;;;8.55;7.75;;;14.90;99.90;;;;;;5066978;28;20112;-54
2023/08/09 07:14:46;;;;;;;8.18;7.50;;;15.00;99.90;;;;;;5064138;28;20516;-54
2023/08/09 07:17:11;;;;;;;8.98;8.07;;;15.00;99.90;;;;;;5066403;28;20036;-56
2023/08/09 07:19:37;;;;;;;7.93;7.32;;;15.10;99.90;;;;;;5065394;28;20539;-55
2023/08/09 07:22:03;;;;;;;7.32;6.65;;;15.20;99.90;;;;;;5061067;28;20590;-52
2023/08/09 07:24:28;;;;;;;8.57;6.50;;;15.30;99.90;;;;;;5066694;28;20315;-53
2023/08/09 07:26:54;;;;;;;7.03;6.38;;;15.30;99.90;;;;;;5066883;28;20405;-55
2023/08/09 07:29:19;;;;;;;7.85;5.63;;;15.40;99.90;;;;;;5065180;28;20112;-55
2023/08/09 07:31:45;;;;;;;9.90;7.47;;;15.40;99.90;;;;;;5068216;28;20036;-53
2023/08/09 07:34:11;;;;;;;11.98;8.70;;;15.50;99.90;;;;;;5065791;28;20039;-53
2023/08/09 07:36:37;;;;;;;7.40;6.70;;;15.60;99.90;;;;;;5065195;28;20149;-55
2023/08/09 07:39:03;;;;;;;8.25;6.55;;;15.70;99.90;;;;;;5067203;28;20406;-56
2023/08/09 07:41:28;;;;;;;7.03;6.32;;;15.80;99.90;;;;;;5065815;28;20107;-53
2023/08/09 07:43:54;;;;;;;5.93;5.30;;;15.80;99.90;;;;;;5074876;28;20124;-56
2023/08/09 07:46:20;;;;;;;8.65;5.60;;;15.90;99.90;;;;;;5068350;28;20036;-53
2023/08/09 07:48:45;;;;;;;6.18;5.63;;;16.00;99.90;;;;;;5064940;28;20497;-53
2023/08/09 07:51:11;;;;;;;6.82;5.47;;;16.10;99.90;;;;;;5064644;28;20048;-55
2023/08/09 07:53:37;;;;;;;;;;;16.20;99.90;;;;;;5071030;28;20532;-53
2023/08/09 07:56:03;;;;;;;6.38;5.43;;;16.30;99.90;;;;;;5065241;28;19928;-53
2023/08/09 07:58:29;;;;;;;5.80;5.30;;;16.40;99.90;;;;;;5067607;28;20059;-53
2023/08/09 08:00:54;;;;;;;5.57;5.07;;;16.50;99.90;;;;;;5061919;28;20024;-55
2023/08/09 08:03:20;;;;;;;4.60;4.20;;;16.50;99.90;;;;;;5065704;28;20036;-56
2023/08/09 08:05:45;;;;;;;6.13;4.10;;;16.60;99.90;;;;;;5065465;28;20031;-53
2023/08/09 08:08:11;;;;;;;5.85;3.60;;;16.70;99.90;;;;;;5064852;28;20071;-54
2023/08/09 08:10:37;;;;;;;6.63;4.18;;;16.80;99.90;;;;;;5067365;28;20047;-56
2023/08/09 08:13:03;;;;;;;6.65;3.70;;;17.00;99.90;;;;;;5060600;28;20049;-55
2023/08/09 08:15:29;;;;;;;3.28;2.95;;;17.00;99.90;;;;;;5063632;28;20033;-57
2023/08/09 08:17:55;;;;;;;6.40;4.13;;;17.10;99.90;;;;;;5072341;28;20182;-56
2023/08/09 08:20:20;;;;;;;;;;;17.20;99.90;;;;;;5067013;28;20036;-56
2023/08/09 08:22:48;;;;;;;4.97;4.03;;;17.20;99.90;;;;;;5065811;28;19925;-53
2023/08/09 08:25:16;;;;;;;4.10;3.45;;;17.30;99.90;;;;;;5064586;28;20043;-56
2023/08/09 08:27:43;;;;;;;4.63;2.72;;;17.40;99.90;;;;;;5080004;28;20044;-55
2023/08/09 08:30:09;;;;;;;5.68;2.53;;;17.40;99.90;;;;;;5065292;28;20045;-56
2023/08/09 08:32:36;;;;;;;2.72;2.38;;;17.50;99.90;;;;;;5066127;28;20036;-56
2023/08/09 08:35:02;;;;;;;2.70;2.15;;;17.60;99.90;;;;;;5065017;28;20047;-56
2023/08/09 08:37:29;;;;;;;3.03;2.10;;;17.70;99.90;;;;;;5067070;28;20480;-55
2023/08/09 08:39:55;;;;;;;3.05;2.25;;;17.90;99.90;;;;;;5066515;28;20041;-55
2023/08/09 08:42:21;;;;;;;;;;;17.90;99.90;;;;;;5047322;28;20035;-56
2023/08/09 08:44:46;;;;;;;3.88;2.33;;;18.00;99.90;;;;;;5066794;28;20181;-53
2023/08/09 08:47:12;;;;;;;5.47;2.25;;;18.10;99.90;;;;;;5066721;28;20048;-56
2023/08/09 08:49:47;;;;;;;3.13;1.60;;;18.20;99.90;;;;;;5066478;28;20076;-55
2023/08/09 08:52:14;;;;;;;4.72;2.10;;;18.30;99.90;;;;;;5063866;28;20541;-53
2023/08/09 08:54:40;;;;;;;2.95;1.30;;;18.30;99.90;;;;;;5066159;28;20061;-54
2023/08/09 08:57:07;;;;;;;2.35;0.98;;;18.40;99.90;;;;;;5069246;28;20043;-54
2023/08/09 08:59:34;;;;;;;2.78;0.82;;;18.60;99.90;;;;;;5065391;28;20359;-54
2023/08/09 09:02:01;;;;;;;1.83;0.85;;;18.60;99.90;;;;;;5066308;28;20068;-56
2023/08/09 09:04:26;;;;;;;4.90;0.70;;;18.70;99.90;;;;;;5068397;28;20055;-56
2023/08/09 09:06:52;;;;;;;1.35;0.60;;;18.80;99.90;;;;;;5070726;28;20032;-55
2023/08/09 09:09:18;;;;;;;2.72;1.05;;;18.90;99.90;;;;;;5064049;28;20543;-55
2023/08/09 09:11:44;;;;;;;2.33;1.15;;;18.90;99.90;;;;;;5062918;28;20457;-54
2023/08/09 09:14:10;;;;;;;;;;;18.90;99.90;;;;;;5062252;28;20029;-54
2023/08/09 09:16:36;;;;;;;4.03;0.85;;;19.00;99.90;;;;;;5059461;28;19998;-56
2023/08/09 09:19:02;;;;;;;;;;;19.10;99.90;;;;;;5059446;28;20028;-56
2023/08/09 09:21:31;;;;;;;3.58;0.45;;;19.10;99.90;;;;;;5061277;28;19938;-57
2023/08/09 09:24:01;;;;;;;7.43;1.13;;;19.10;99.90;;;;;;5062053;28;20049;-55
2023/08/09 09:26:28;;;;;;;0.90;0.73;;;19.20;99.90;;;;;;5063647;28;20040;-53
2023/08/09 09:28:54;;;;;;;1.65;0.57;;;19.30;99.90;;;;;;5062935;28;20463;-55
2023/08/09 09:31:19;;;;;;;;;;;19.40;99.90;;;;;;5064538;28;20116;-53
2023/08/09 09:33:48;;;;;;;3.55;1.20;;;19.40;99.90;;;;;;5062986;28;20003;-55
2023/08/09 09:36:16;;;;;;;2.90;0.60;;;19.50;99.90;;;;;;5061451;28;20041;-55
2023/08/09 09:38:44;;;;;;;2.90;0.50;;;19.60;99.90;;;;;;5063346;28;20043;-56
2023/08/09 09:41:10;;;;;;;3.13;0.20;;;19.80;99.90;;;;;;5063863;28;20040;-54
2023/08/09 09:43:43;;;;;;;0.68;0.20;;;19.90;99.90;;;;;;5063681;28;20612;-56
2023/08/09 09:46:25;;;;;;;1.48;0.20;;;19.90;99.90;;;;;;5066788;28;20043;-57
2023/08/09 09:49:02;;;;;;;3.10;0.50;;;20.10;99.90;;;;;;5064497;28;20037;-54
2023/08/09 09:51:28;;;;;;;2.33;0.50;;;20.10;99.90;;;;;;5067767;28;20253;-56
2023/08/09 09:53:53;;;;;;;2.42;0.15;;;20.20;99.90;;;;;;5066886;28;20079;-55
2023/08/09 09:56:19;;;;;;;;;;;20.20;99.90;;;;;;5067558;28;20040;-54
2023/08/09 09:58:46;;;;;;;0.70;0.30;;;20.30;99.90;;;;;;5066778;28;19916;-57
2023/08/09 10:01:19;;;;;;;0.95;0.20;;;20.30;99.90;;;;;;5067161;28;20037;-54
2023/08/09 10:03:45;;;;;;;1.08;0.20;;;20.30;99.90;;;;;;5067494;28;20036;-55
2023/08/09 10:06:19;;;;;;;;;;;20.20;99.90;;;;;;5067537;28;20117;-57
2023/08/09 10:08:46;;;;;;;2.10;0.28;;;20.10;99.90;;;;;;5066565;28;20313;-56
2023/08/09 10:11:12;;;;;;;3.17;0.32;;;20.20;99.90;;;;;;5067149;28;20082;-54
2023/08/09 10:13:40;;;;;;;0.90;0.20;;;20.20;99.90;;;;;;5064200;28;20378;-59
2023/08/09 10:16:10;;;;;;;3.22;0.20;;;20.30;99.90;;;;;;5065267;28;20048;-57
2023/08/09 10:18:40;;;;;;;1.13;0.20;;;20.20;99.90;;;;;;5068194;28;20405;-56
2023/08/09 10:21:07;;;;;;;4.68;0.45;;;20.20;99.90;;;;;;5065128;28;20045;-55
2023/08/09 10:23:33;;;;;;;0.75;0.20;;;20.10;99.90;;;;;;5066512;28;20261;-57
2023/08/09 10:25:59;;;;;;;0.90;0.20;;;20.20;99.90;;;;;;5066994;28;20052;-54
2023/08/09 10:28:47;;;;;;;;;;;20.20;99.90;;;;;;5064128;28;20066;-54
2023/08/09 10:31:13;;;;;;;3.88;2.25;;;20.30;99.90;;;;;;5063727;28;19916;-55
2023/08/09 10:34:07;;;;;;;4.95;2.40;;;20.30;99.90;;;;;;5066046;28;20044;-56
2023/08/09 10:36:33;;;;;;;3.15;0.47;;;20.30;99.20;;;;;;5065621;28;20043;-58
2023/08/09 10:39:12;;;;;;;1.73;0.40;;;20.30;99.90;;;;;;5064555;28;20024;-57
2023/08/09 10:41:52;;;;;;;1.88;0.90;;;20.30;99.90;;;;;;5060080;28;20033;-57
2023/08/09 10:44:32;;;;;;;1.83;1.00;;;20.30;99.90;;;;;;5063277;28;20083;-54
2023/08/09 10:47:19;;;;;;;1.58;0.40;;;20.40;99.70;;;;;;5058116;28;20072;-53
2023/08/09 10:49:47;;;;;;;2.70;0.50;;;20.30;99.40;;;;;;5064723;28;20029;-53
2023/08/09 10:52:17;;;;;;;1.02;0.40;;;20.30;99.90;;;;;;5072888;28;20047;-56
2023/08/09 10:54:44;;;;;;;2.35;0.73;;;20.20;99.90;;;;;;5063233;28;20089;-58
2023/08/09 10:57:11;;;;;;;1.83;0.40;;;20.20;99.90;;;;;;5070124;28;20077;-53
2023/08/09 10:59:39;;;;;;;1.52;0.40;;;20.30;99.90;;;;;;5072484;28;20040;-56
2023/08/09 11:02:06;;;;;;;1.60;0.20;;;20.30;99.90;;;;;;5072604;28;20063;-53
2023/08/09 11:04:32;;;;;;;1.23;0.30;;;20.40;99.90;;;;;;5072674;28;20032;-56
2023/08/09 11:06:58;;;;;;;;;;;20.50;99.90;;;;;;5070753;28;20039;-57
2023/08/09 11:09:26;;;;;;;0.80;0.22;;;20.70;99.90;;;;;;5078217;28;19999;-58
2023/08/09 11:11:53;;;;;;;1.48;0.20;;;20.70;99.40;;;;;;5069368;28;20386;-55
2023/08/09 11:14:22;;;;;;;3.53;0.30;;;20.70;99.90;;;;;;5064378;28;20097;-55
2023/08/09 11:16:49;;;;;;;0.68;0.20;;;20.90;99.90;;;;;;5064710;28;20033;-58
2023/08/09 11:19:17;;;;;;;2.42;0.40;;;21.00;99.80;;;;;;5065433;28;20028;-55
2023/08/09 11:21:49;;;;;;;0.65;0.17;;;21.10;99.00;;;;;;5065465;28;20131;-54
2023/08/09 11:24:17;;;;;;;0.80;0.20;;;21.10;98.50;;;;;;5065197;28;21218;-57
2023/08/09 11:26:53;;;;;;;4.95;0.30;;;21.10;98.30;;;;;;5066042;28;20032;-55
2023/08/09 11:29:20;;;;;;;1.75;0.20;;;21.20;99.00;;;;;;5063784;28;20468;-57
2023/08/09 11:31:48;;;;;;;0.40;0.20;;;21.20;98.90;;;;;;5062589;28;20044;-58
2023/08/09 11:34:16;;;;;;;1.70;0.30;;;21.30;99.00;;;;;;5065532;28;20470;-55
2023/08/09 11:36:43;;;;;;;2.17;0.20;;;21.20;97.90;;;;;;5065270;28;20498;-56
2023/08/09 11:39:10;;;;;;;2.28;0.20;;;21.00;97.20;;;;;;5067016;28;20503;-57
2023/08/09 11:41:44;;;;;;;1.70;0.65;;;20.90;97.60;;;;;;5063739;28;20521;-53
2023/08/09 11:44:14;;;;;;;3.33;0.63;;;20.90;98.00;;;;;;5066155;28;20040;-57
2023/08/09 11:46:43;;;;;;;1.92;0.28;;;20.80;98.10;;;;;;5064980;28;20437;-54
2023/08/09 11:49:09;;;;;;;1.92;0.47;;;20.80;98.60;;;;;;5064862;28;20040;-54
2023/08/09 11:51:35;;;;;;;;;;;20.90;99.30;;;;;;5066757;28;20398;-57
2023/08/09 11:54:01;;;;;;;2.85;0.20;;;20.90;98.50;;;;;;5062178;28;20293;-58
2023/08/09 11:56:31;;;;;;;;;;;21.10;99.90;;;;;;5059561;28;20037;-57
2023/08/09 11:58:58;;;;;;;1.27;0.32;;;21.30;98.70;;;;;;5058229;28;20259;-58
2023/08/09 12:01:34;;;;;;;2.45;0.20;;;21.50;98.90;;;;;;5060738;28;20434;-56
2023/08/09 12:04:04;;;;;;;2.22;0.30;;;21.60;98.10;;;;;;5079994;28;20045;-57
2023/08/09 12:06:37;;;;;;;2.03;0.30;;;21.80;98.40;;;;;;5065060;28;20040;-58
2023/08/09 12:09:34;;;;;;;1.30;0.30;;;21.80;97.70;;;;;;5064413;28;20516;-58
2023/08/09 12:12:19;;;;;;;1.98;0.30;;;21.90;98.30;;;;;;5058087;28;20132;-56
2023/08/09 12:14:49;;;;;;;0.50;0.22;;;22.10;97.70;;;;;;5065605;28;20119;-58
2023/08/09 12:17:26;;;;;;;0.82;0.30;;;22.20;97.80;;;;;;5066225;28;20047;-58
2023/08/09 12:20:04;;;;;;;3.03;0.20;;;22.10;96.40;;;;;;5063007;28;20501;-58
2023/08/09 12:22:31;;;;;;;1.95;0.30;;;22.00;97.30;;;;;;5068632;28;20036;-59
2023/08/09 12:24:58;;;;;;;1.55;0.40;;;22.00;97.50;;;;;;5068986;28;20063;-56
2023/08/09 12:27:24;;;;;;;4.97;0.30;;;22.00;97.70;;;;;;5062758;28;20129;-57
2023/08/09 12:29:50;;;;;;;1.08;0.40;;;22.00;97.10;;;;;;5063643;28;20842;-57
2023/08/09 12:32:17;;;;;;;3.42;0.22;;;22.00;97.10;;;;;;5070580;28;20060;-57
2023/08/09 12:34:43;;;;;;;3.28;0.50;;;22.00;96.00;;;;;;5063798;28;20041;-57
2023/08/09 12:37:09;;;;;;;;;;;21.90;96.50;;;;;;5068336;28;20043;-58
2023/08/09 12:39:35;;;;;;;1.85;0.40;;;22.00;96.90;;;;;;5063996;28;19981;-57